Terminal Aerodrome Forecast
Issued by NWS Caribou, ME

Current Version | Previous Version | Text Only | Print | Product List | Glossary On
Versions: 1 2 3 4 5 6 7 8 9 10 11 12 13 14 15 16 17 18 19 20 21 22 23 24
000 FTUS41 KCAR 212300 TAFBGR TAF KBGR 212322Z 2200/2224 06008KT 4SM -RA OVC019 FM220200 05008KT 3SM -RA OVC020 FM220900 03012KT 3SM RA OVC015=

USA.gov is the U.S. government's official web portal to all federal, state and local government web resources and services.